sensor_id;sensor_type;location;lat;lon;timestamp;P1;durP1;ratioP1;P2;durP2;ratioP2
20830;SDS011;10576;53.556;9.868;2023-08-08T00:00:25;345.80;;;109.47;;
20830;SDS011;10576;53.556;9.868;2023-08-08T00:02:51;342.00;;;104.65;;
20830;SDS011;10576;53.556;9.868;2023-08-08T00:05:17;342.17;;;105.60;;
20830;SDS011;10576;53.556;9.868;2023-08-08T00:07:43;345.67;;;107.38;;
20830;SDS011;10576;53.556;9.868;2023-08-08T00:10:09;343.20;;;106.45;;
20830;SDS011;10576;53.556;9.868;2023-08-08T00:12:34;343.57;;;106.37;;
20830;SDS011;10576;53.556;9.868;2023-08-08T00:15:01;341.92;;;104.43;;
20830;SDS011;10576;53.556;9.868;2023-08-08T00:17:27;344.95;;;107.63;;
20830;SDS011;10576;53.556;9.868;2023-08-08T00:19:52;341.50;;;104.57;;
20830;SDS011;10576;53.556;9.868;2023-08-08T00:22:18;343.40;;;105.35;;
20830;SDS011;10576;53.556;9.868;2023-08-08T00:24:44;339.92;;;103.10;;
20830;SDS011;10576;53.556;9.868;2023-08-08T00:27:10;347.63;;;108.85;;
20830;SDS011;10576;53.556;9.868;2023-08-08T00:29:35;342.47;;;105.83;;
20830;SDS011;10576;53.556;9.868;2023-08-08T00:32:01;342.20;;;104.43;;
20830;SDS011;10576;53.556;9.868;2023-08-08T00:34:27;342.10;;;104.53;;
20830;SDS011;10576;53.556;9.868;2023-08-08T00:36:53;344.60;;;107.60;;
20830;SDS011;10576;53.556;9.868;2023-08-08T00:39:19;341.17;;;103.50;;
20830;SDS011;10576;53.556;9.868;2023-08-08T00:41:44;339.73;;;101.97;;
20830;SDS011;10576;53.556;9.868;2023-08-08T00:44:10;346.95;;;109.20;;
20830;SDS011;10576;53.556;9.868;2023-08-08T00:46:35;343.00;;;104.68;;
20830;SDS011;10576;53.556;9.868;2023-08-08T00:49:01;344.25;;;106.40;;
20830;SDS011;10576;53.556;9.868;2023-08-08T00:51:27;342.65;;;104.88;;
20830;SDS011;10576;53.556;9.868;2023-08-08T00:53:54;342.30;;;104.20;;
20830;SDS011;10576;53.556;9.868;2023-08-08T00:56:19;342.17;;;104.55;;
20830;SDS011;10576;53.556;9.868;2023-08-08T00:58:45;350.23;;;112.45;;
20830;SDS011;10576;53.556;9.868;2023-08-08T01:01:12;345.80;;;107.75;;
20830;SDS011;10576;53.556;9.868;2023-08-08T01:03:38;341.45;;;103.40;;
20830;SDS011;10576;53.556;9.868;2023-08-08T01:06:06;341.50;;;104.10;;
20830;SDS011;10576;53.556;9.868;2023-08-08T01:09:04;342.02;;;103.85;;
20830;SDS011;10576;53.556;9.868;2023-08-08T01:11:29;343.88;;;105.05;;
20830;SDS011;10576;53.556;9.868;2023-08-08T01:13:57;343.70;;;105.70;;
20830;SDS011;10576;53.556;9.868;2023-08-08T01:16:24;339.55;;;102.68;;
20830;SDS011;10576;53.556;9.868;2023-08-08T01:18:51;341.30;;;103.83;;
20830;SDS011;10576;53.556;9.868;2023-08-08T01:21:18;342.80;;;104.32;;
20830;SDS011;10576;53.556;9.868;2023-08-08T01:23:56;342.67;;;104.10;;
20830;SDS011;10576;53.556;9.868;2023-08-08T01:26:22;358.27;;;118.72;;
20830;SDS011;10576;53.556;9.868;2023-08-08T01:28:52;342.42;;;103.32;;
20830;SDS011;10576;53.556;9.868;2023-08-08T01:31:19;345.75;;;105.57;;
20830;SDS011;10576;53.556;9.868;2023-08-08T01:33:45;344.30;;;104.88;;
20830;SDS011;10576;53.556;9.868;2023-08-08T01:36:18;345.45;;;105.43;;
20830;SDS011;10576;53.556;9.868;2023-08-08T01:38:49;341.02;;;102.05;;
20830;SDS011;10576;53.556;9.868;2023-08-08T01:41:17;342.65;;;103.25;;
20830;SDS011;10576;53.556;9.868;2023-08-08T01:43:43;344.98;;;105.22;;
20830;SDS011;10576;53.556;9.868;2023-08-08T01:46:10;340.92;;;101.57;;
20830;SDS011;10576;53.556;9.868;2023-08-08T01:48:36;343.53;;;105.40;;
20830;SDS011;10576;53.556;9.868;2023-08-08T01:51:02;344.70;;;106.38;;
20830;SDS011;10576;53.556;9.868;2023-08-08T01:53:28;343.08;;;104.07;;
20830;SDS011;10576;53.556;9.868;2023-08-08T01:55:54;344.63;;;106.13;;
20830;SDS011;10576;53.556;9.868;2023-08-08T01:58:20;341.13;;;102.70;;
20830;SDS011;10576;53.556;9.868;2023-08-08T02:00:46;344.73;;;105.63;;
20830;SDS011;10576;53.556;9.868;2023-08-08T02:03:12;341.65;;;102.35;;
20830;SDS011;10576;53.556;9.868;2023-08-08T02:05:38;341.77;;;102.43;;
20830;SDS011;10576;53.556;9.868;2023-08-08T02:08:04;339.15;;;100.85;;
20830;SDS011;10576;53.556;9.868;2023-08-08T02:10:30;342.33;;;103.85;;
20830;SDS011;10576;53.556;9.868;2023-08-08T02:12:56;344.63;;;104.97;;
20830;SDS011;10576;53.556;9.868;2023-08-08T02:15:22;346.10;;;106.38;;
20830;SDS011;10576;53.556;9.868;2023-08-08T02:17:49;345.30;;;104.97;;
20830;SDS011;10576;53.556;9.868;2023-08-08T02:20:15;340.67;;;101.15;;
20830;SDS011;10576;53.556;9.868;2023-08-08T02:22:43;348.70;;;109.40;;
20830;SDS011;10576;53.556;9.868;2023-08-08T02:25:08;344.07;;;105.27;;
20830;SDS011;10576;53.556;9.868;2023-08-08T02:27:34;346.73;;;106.33;;
20830;SDS011;10576;53.556;9.868;2023-08-08T02:29:59;343.08;;;102.93;;
20830;SDS011;10576;53.556;9.868;2023-08-08T02:32:25;347.77;;;106.88;;
20830;SDS011;10576;53.556;9.868;2023-08-08T02:34:51;341.90;;;102.13;;
20830;SDS011;10576;53.556;9.868;2023-08-08T02:37:17;341.60;;;102.40;;
20830;SDS011;10576;53.556;9.868;2023-08-08T02:39:43;341.63;;;102.55;;
20830;SDS011;10576;53.556;9.868;2023-08-08T02:42:09;338.53;;;99.77;;
20830;SDS011;10576;53.556;9.868;2023-08-08T02:44:35;344.55;;;104.30;;
20830;SDS011;10576;53.556;9.868;2023-08-08T02:47:00;339.90;;;100.93;;
20830;SDS011;10576;53.556;9.868;2023-08-08T02:49:26;342.95;;;104.38;;
20830;SDS011;10576;53.556;9.868;2023-08-08T02:51:53;341.95;;;101.63;;
20830;SDS011;10576;53.556;9.868;2023-08-08T02:54:19;342.00;;;102.50;;
20830;SDS011;10576;53.556;9.868;2023-08-08T02:56:45;341.95;;;101.70;;
20830;SDS011;10576;53.556;9.868;2023-08-08T02:59:11;340.30;;;101.55;;
20830;SDS011;10576;53.556;9.868;2023-08-08T03:01:37;343.50;;;103.00;;
20830;SDS011;10576;53.556;9.868;2023-08-08T03:04:04;340.33;;;100.60;;
20830;SDS011;10576;53.556;9.868;2023-08-08T03:06:31;342.10;;;102.57;;
20830;SDS011;10576;53.556;9.868;2023-08-08T03:08:56;344.77;;;104.78;;
20830;SDS011;10576;53.556;9.868;2023-08-08T03:11:22;345.30;;;106.22;;
20830;SDS011;10576;53.556;9.868;2023-08-08T03:13:48;341.40;;;103.05;;
20830;SDS011;10576;53.556;9.868;2023-08-08T03:16:14;340.13;;;101.83;;
20830;SDS011;10576;53.556;9.868;2023-08-08T03:18:40;342.73;;;102.95;;
20830;SDS011;10576;53.556;9.868;2023-08-08T03:21:06;340.13;;;101.28;;
20830;SDS011;10576;53.556;9.868;2023-08-08T03:23:32;341.15;;;102.57;;
20830;SDS011;10576;53.556;9.868;2023-08-08T03:25:58;344.95;;;105.32;;
20830;SDS011;10576;53.556;9.868;2023-08-08T03:28:24;344.90;;;105.00;;
20830;SDS011;10576;53.556;9.868;2023-08-08T03:30:51;342.67;;;103.35;;
20830;SDS011;10576;53.556;9.868;2023-08-08T03:33:16;341.47;;;102.27;;
20830;SDS011;10576;53.556;9.868;2023-08-08T03:35:42;341.70;;;102.63;;
20830;SDS011;10576;53.556;9.868;2023-08-08T03:38:09;341.65;;;103.90;;
20830;SDS011;10576;53.556;9.868;2023-08-08T03:40:35;341.83;;;102.85;;
20830;SDS011;10576;53.556;9.868;2023-08-08T03:43:01;342.45;;;103.28;;
20830;SDS011;10576;53.556;9.868;2023-08-08T03:45:27;344.48;;;105.93;;
20830;SDS011;10576;53.556;9.868;2023-08-08T03:47:53;345.33;;;104.72;;
20830;SDS011;10576;53.556;9.868;2023-08-08T03:50:19;338.63;;;101.20;;
20830;SDS011;10576;53.556;9.868;2023-08-08T03:52:45;346.80;;;106.43;;
20830;SDS011;10576;53.556;9.868;2023-08-08T03:55:11;340.83;;;101.33;;
20830;SDS011;10576;53.556;9.868;2023-08-08T03:57:37;345.63;;;106.00;;
20830;SDS011;10576;53.556;9.868;2023-08-08T04:00:04;341.60;;;103.93;;
20830;SDS011;10576;53.556;9.868;2023-08-08T04:02:32;348.48;;;109.95;;
20830;SDS011;10576;53.556;9.868;2023-08-08T04:05:01;341.48;;;103.68;;
20830;SDS011;10576;53.556;9.868;2023-08-08T04:07:27;343.67;;;104.78;;
20830;SDS011;10576;53.556;9.868;2023-08-08T04:09:53;340.92;;;101.95;;
20830;SDS011;10576;53.556;9.868;2023-08-08T04:12:18;343.88;;;104.68;;
20830;SDS011;10576;53.556;9.868;2023-08-08T04:14:44;342.38;;;104.32;;
20830;SDS011;10576;53.556;9.868;2023-08-08T04:17:10;343.92;;;103.90;;
20830;SDS011;10576;53.556;9.868;2023-08-08T04:19:36;339.38;;;101.35;;
20830;SDS011;10576;53.556;9.868;2023-08-08T04:22:03;341.45;;;102.35;;
20830;SDS011;10576;53.556;9.868;2023-08-08T04:24:29;342.65;;;104.10;;
20830;SDS011;10576;53.556;9.868;2023-08-08T04:26:55;343.02;;;103.63;;
20830;SDS011;10576;53.556;9.868;2023-08-08T04:29:21;339.35;;;101.47;;
20830;SDS011;10576;53.556;9.868;2023-08-08T04:31:47;345.90;;;106.60;;
20830;SDS011;10576;53.556;9.868;2023-08-08T04:34:13;341.17;;;102.22;;
20830;SDS011;10576;53.556;9.868;2023-08-08T04:36:39;338.35;;;100.70;;
20830;SDS011;10576;53.556;9.868;2023-08-08T04:39:04;340.05;;;100.65;;
20830;SDS011;10576;53.556;9.868;2023-08-08T04:41:31;345.48;;;106.15;;
20830;SDS011;10576;53.556;9.868;2023-08-08T04:43:56;344.43;;;104.93;;
20830;SDS011;10576;53.556;9.868;2023-08-08T04:46:22;345.25;;;105.65;;
20830;SDS011;10576;53.556;9.868;2023-08-08T04:48:48;344.13;;;105.78;;
20830;SDS011;10576;53.556;9.868;2023-08-08T04:51:14;342.02;;;102.82;;
20830;SDS011;10576;53.556;9.868;2023-08-08T04:53:40;342.08;;;103.78;;
20830;SDS011;10576;53.556;9.868;2023-08-08T04:56:06;340.38;;;102.68;;
20830;SDS011;10576;53.556;9.868;2023-08-08T04:58:32;341.23;;;103.10;;
20830;SDS011;10576;53.556;9.868;2023-08-08T05:00:58;343.20;;;103.60;;
20830;SDS011;10576;53.556;9.868;2023-08-08T05:03:23;341.37;;;103.87;;
20830;SDS011;10576;53.556;9.868;2023-08-08T05:05:49;339.92;;;103.50;;
20830;SDS011;10576;53.556;9.868;2023-08-08T05:08:16;343.87;;;105.60;;
20830;SDS011;10576;53.556;9.868;2023-08-08T05:10:42;340.75;;;102.50;;
20830;SDS011;10576;53.556;9.868;2023-08-08T05:13:09;342.13;;;104.05;;
20830;SDS011;10576;53.556;9.868;2023-08-08T05:15:36;343.95;;;105.97;;
20830;SDS011;10576;53.556;9.868;2023-08-08T05:18:02;344.20;;;105.70;;
20830;SDS011;10576;53.556;9.868;2023-08-08T05:20:28;341.38;;;103.45;;
20830;SDS011;10576;53.556;9.868;2023-08-08T05:22:54;343.05;;;104.30;;
20830;SDS011;10576;53.556;9.868;2023-08-08T05:25:20;355.00;;;114.53;;
20830;SDS011;10576;53.556;9.868;2023-08-08T05:27:46;346.98;;;109.78;;
20830;SDS011;10576;53.556;9.868;2023-08-08T05:30:13;350.70;;;113.38;;
20830;SDS011;10576;53.556;9.868;2023-08-08T05:32:39;344.97;;;106.67;;
20830;SDS011;10576;53.556;9.868;2023-08-08T05:35:05;349.33;;;110.63;;
20830;SDS011;10576;53.556;9.868;2023-08-08T05:37:31;350.48;;;111.20;;
20830;SDS011;10576;53.556;9.868;2023-08-08T05:39:57;342.45;;;104.90;;
20830;SDS011;10576;53.556;9.868;2023-08-08T05:42:23;347.58;;;108.43;;
20830;SDS011;10576;53.556;9.868;2023-08-08T05:44:49;341.83;;;105.97;;
20830;SDS011;10576;53.556;9.868;2023-08-08T05:47:15;347.85;;;111.18;;
20830;SDS011;10576;53.556;9.868;2023-08-08T05:49:41;345.70;;;109.00;;
20830;SDS011;10576;53.556;9.868;2023-08-08T05:52:08;345.95;;;111.03;;
20830;SDS011;10576;53.556;9.868;2023-08-08T05:54:34;348.85;;;114.32;;
20830;SDS011;10576;53.556;9.868;2023-08-08T05:57:00;347.07;;;112.27;;
20830;SDS011;10576;53.556;9.868;2023-08-08T05:59:26;346.95;;;111.57;;
20830;SDS011;10576;53.556;9.868;2023-08-08T06:01:52;348.80;;;113.97;;
20830;SDS011;10576;53.556;9.868;2023-08-08T06:04:18;348.15;;;112.95;;
20830;SDS011;10576;53.556;9.868;2023-08-08T06:06:44;346.38;;;111.30;;
20830;SDS011;10576;53.556;9.868;2023-08-08T06:09:10;350.17;;;114.38;;
20830;SDS011;10576;53.556;9.868;2023-08-08T06:11:36;353.17;;;117.53;;
20830;SDS011;10576;53.556;9.868;2023-08-08T06:14:02;356.65;;;120.95;;
20830;SDS011;10576;53.556;9.868;2023-08-08T06:16:27;351.25;;;116.45;;
20830;SDS011;10576;53.556;9.868;2023-08-08T06:18:53;353.48;;;118.88;;
20830;SDS011;10576;53.556;9.868;2023-08-08T06:21:19;353.77;;;119.47;;
20830;SDS011;10576;53.556;9.868;2023-08-08T06:23:45;350.50;;;116.20;;
20830;SDS011;10576;53.556;9.868;2023-08-08T06:26:12;352.38;;;117.65;;
20830;SDS011;10576;53.556;9.868;2023-08-08T06:28:39;348.63;;;116.25;;
20830;SDS011;10576;53.556;9.868;2023-08-08T06:31:05;346.38;;;112.50;;
20830;SDS011;10576;53.556;9.868;2023-08-08T06:33:32;353.65;;;119.97;;
20830;SDS011;10576;53.556;9.868;2023-08-08T06:35:57;351.33;;;117.53;;
20830;SDS011;10576;53.556;9.868;2023-08-08T06:38:23;354.00;;;119.80;;
20830;SDS011;10576;53.556;9.868;2023-08-08T06:40:49;350.98;;;116.85;;
20830;SDS011;10576;53.556;9.868;2023-08-08T06:43:16;355.15;;;121.18;;
20830;SDS011;10576;53.556;9.868;2023-08-08T06:45:42;348.77;;;115.63;;
20830;SDS011;10576;53.556;9.868;2023-08-08T06:48:08;358.98;;;123.68;;
20830;SDS011;10576;53.556;9.868;2023-08-08T06:50:34;345.10;;;112.57;;
20830;SDS011;10576;53.556;9.868;2023-08-08T06:53:00;354.95;;;120.95;;
20830;SDS011;10576;53.556;9.868;2023-08-08T06:55:26;347.17;;;114.45;;
20830;SDS011;10576;53.556;9.868;2023-08-08T06:57:51;351.87;;;118.83;;
20830;SDS011;10576;53.556;9.868;2023-08-08T07:00:18;349.60;;;118.82;;
20830;SDS011;10576;53.556;9.868;2023-08-08T07:02:43;350.20;;;118.13;;
20830;SDS011;10576;53.556;9.868;2023-08-08T07:05:09;351.77;;;120.00;;
20830;SDS011;10576;53.556;9.868;2023-08-08T07:07:35;346.98;;;116.13;;
20830;SDS011;10576;53.556;9.868;2023-08-08T07:10:01;348.02;;;116.38;;
20830;SDS011;10576;53.556;9.868;2023-08-08T07:12:28;351.75;;;120.60;;
20830;SDS011;10576;53.556;9.868;2023-08-08T07:14:56;345.00;;;113.50;;
20830;SDS011;10576;53.556;9.868;2023-08-08T07:17:22;345.42;;;114.80;;
20830;SDS011;10576;53.556;9.868;2023-08-08T07:19:47;348.50;;;116.72;;
20830;SDS011;10576;53.556;9.868;2023-08-08T07:22:13;346.27;;;117.23;;
20830;SDS011;10576;53.556;9.868;2023-08-08T07:24:39;348.02;;;117.75;;
20830;SDS011;10576;53.556;9.868;2023-08-08T07:27:05;349.10;;;119.67;;
20830;SDS011;10576;53.556;9.868;2023-08-08T07:29:31;348.03;;;119.77;;
20830;SDS011;10576;53.556;9.868;2023-08-08T07:31:57;347.67;;;118.10;;
20830;SDS011;10576;53.556;9.868;2023-08-08T07:34:23;352.65;;;124.05;;
20830;SDS011;10576;53.556;9.868;2023-08-08T07:36:49;347.88;;;119.35;;
20830;SDS011;10576;53.556;9.868;2023-08-08T07:39:15;348.20;;;120.53;;
20830;SDS011;10576;53.556;9.868;2023-08-08T07:41:41;350.45;;;123.57;;
20830;SDS011;10576;53.556;9.868;2023-08-08T07:44:07;353.02;;;127.43;;
20830;SDS011;10576;53.556;9.868;2023-08-08T07:46:32;351.75;;;125.50;;
20830;SDS011;10576;53.556;9.868;2023-08-08T07:48:58;353.92;;;128.40;;
20830;SDS011;10576;53.556;9.868;2023-08-08T07:51:28;357.98;;;133.82;;
20830;SDS011;10576;53.556;9.868;2023-08-08T07:53:54;354.10;;;129.73;;
20830;SDS011;10576;53.556;9.868;2023-08-08T07:56:19;354.27;;;130.40;;
20830;SDS011;10576;53.556;9.868;2023-08-08T07:58:45;350.10;;;125.40;;
20830;SDS011;10576;53.556;9.868;2023-08-08T08:01:11;357.50;;;132.40;;
20830;SDS011;10576;53.556;9.868;2023-08-08T08:03:38;352.63;;;129.40;;
20830;SDS011;10576;53.556;9.868;2023-08-08T08:06:04;355.23;;;130.88;;
20830;SDS011;10576;53.556;9.868;2023-08-08T08:08:30;352.52;;;128.82;;
20830;SDS011;10576;53.556;9.868;2023-08-08T08:10:56;356.52;;;131.77;;
20830;SDS011;10576;53.556;9.868;2023-08-08T08:13:21;352.57;;;128.17;;
20830;SDS011;10576;53.556;9.868;2023-08-08T08:15:47;358.17;;;133.77;;
20830;SDS011;10576;53.556;9.868;2023-08-08T08:18:13;350.57;;;126.30;;
20830;SDS011;10576;53.556;9.868;2023-08-08T08:20:41;352.15;;;126.72;;
20830;SDS011;10576;53.556;9.868;2023-08-08T08:23:08;356.60;;;129.87;;
20830;SDS011;10576;53.556;9.868;2023-08-08T08:25:34;352.02;;;124.75;;
20830;SDS011;10576;53.556;9.868;2023-08-08T08:28:00;349.05;;;121.53;;
20830;SDS011;10576;53.556;9.868;2023-08-08T08:30:25;358.48;;;131.30;;
20830;SDS011;10576;53.556;9.868;2023-08-08T08:32:51;352.85;;;127.32;;
20830;SDS011;10576;53.556;9.868;2023-08-08T08:35:17;355.70;;;128.10;;
20830;SDS011;10576;53.556;9.868;2023-08-08T08:37:43;356.88;;;130.60;;
20830;SDS011;10576;53.556;9.868;2023-08-08T08:40:09;354.75;;;128.85;;
20830;SDS011;10576;53.556;9.868;2023-08-08T08:42:35;351.63;;;124.97;;
20830;SDS011;10576;53.556;9.868;2023-08-08T08:45:03;352.27;;;125.32;;
20830;SDS011;10576;53.556;9.868;2023-08-08T08:47:30;354.35;;;128.52;;
20830;SDS011;10576;53.556;9.868;2023-08-08T08:49:57;355.45;;;130.32;;
20830;SDS011;10576;53.556;9.868;2023-08-08T08:52:23;355.02;;;129.35;;
20830;SDS011;10576;53.556;9.868;2023-08-08T08:54:51;354.65;;;131.80;;
20830;SDS011;10576;53.556;9.868;2023-08-08T08:57:18;356.20;;;132.90;;
20830;SDS011;10576;53.556;9.868;2023-08-08T08:59:48;355.70;;;132.50;;
20830;SDS011;10576;53.556;9.868;2023-08-08T09:02:14;353.95;;;130.23;;
20830;SDS011;10576;53.556;9.868;2023-08-08T09:04:40;356.77;;;133.20;;
20830;SDS011;10576;53.556;9.868;2023-08-08T09:07:07;353.75;;;129.63;;
20830;SDS011;10576;53.556;9.868;2023-08-08T09:09:34;354.80;;;130.80;;
20830;SDS011;10576;53.556;9.868;2023-08-08T09:12:02;351.98;;;127.90;;
20830;SDS011;10576;53.556;9.868;2023-08-08T09:14:29;353.67;;;128.10;;
20830;SDS011;10576;53.556;9.868;2023-08-08T09:16:55;353.98;;;129.77;;
20830;SDS011;10576;53.556;9.868;2023-08-08T09:19:22;355.23;;;130.02;;
20830;SDS011;10576;53.556;9.868;2023-08-08T09:21:49;353.15;;;128.88;;
20830;SDS011;10576;53.556;9.868;2023-08-08T09:24:15;355.83;;;131.30;;
20830;SDS011;10576;53.556;9.868;2023-08-08T09:26:42;359.13;;;134.30;;
20830;SDS011;10576;53.556;9.868;2023-08-08T09:29:09;357.65;;;134.88;;
20830;SDS011;10576;53.556;9.868;2023-08-08T09:31:36;356.83;;;133.07;;
20830;SDS011;10576;53.556;9.868;2023-08-08T09:34:03;356.17;;;132.65;;
20830;SDS011;10576;53.556;9.868;2023-08-08T09:36:29;354.25;;;130.18;;
20830;SDS011;10576;53.556;9.868;2023-08-08T09:38:55;358.53;;;136.20;;
20830;SDS011;10576;53.556;9.868;2023-08-08T09:41:22;356.55;;;133.50;;
20830;SDS011;10576;53.556;9.868;2023-08-08T09:43:49;362.45;;;140.52;;
20830;SDS011;10576;53.556;9.868;2023-08-08T09:46:16;355.33;;;131.65;;
20830;SDS011;10576;53.556;9.868;2023-08-08T09:48:43;354.00;;;131.20;;
20830;SDS011;10576;53.556;9.868;2023-08-08T09:51:10;357.58;;;135.00;;
20830;SDS011;10576;53.556;9.868;2023-08-08T09:53:36;362.85;;;140.57;;
20830;SDS011;10576;53.556;9.868;2023-08-08T09:56:03;357.45;;;134.80;;
20830;SDS011;10576;53.556;9.868;2023-08-08T09:58:30;357.00;;;132.07;;
20830;SDS011;10576;53.556;9.868;2023-08-08T10:00:56;354.38;;;128.85;;
20830;SDS011;10576;53.556;9.868;2023-08-08T10:03:22;359.70;;;134.88;;
20830;SDS011;10576;53.556;9.868;2023-08-08T10:05:48;354.88;;;130.57;;
20830;SDS011;10576;53.556;9.868;2023-08-08T10:08:17;353.47;;;127.97;;
20830;SDS011;10576;53.556;9.868;2023-08-08T10:10:44;351.17;;;124.20;;
20830;SDS011;10576;53.556;9.868;2023-08-08T10:13:24;351.65;;;124.45;;
20830;SDS011;10576;53.556;9.868;2023-08-08T10:15:51;351.48;;;123.82;;
20830;SDS011;10576;53.556;9.868;2023-08-08T10:18:20;353.73;;;126.35;;
20830;SDS011;10576;53.556;9.868;2023-08-08T10:20:47;352.73;;;124.43;;
20830;SDS011;10576;53.556;9.868;2023-08-08T10:23:17;355.02;;;126.25;;
20830;SDS011;10576;53.556;9.868;2023-08-08T10:25:45;358.00;;;129.63;;
20830;SDS011;10576;53.556;9.868;2023-08-08T10:28:12;354.33;;;124.85;;
20830;SDS011;10576;53.556;9.868;2023-08-08T10:30:46;352.85;;;122.40;;
20830;SDS011;10576;53.556;9.868;2023-08-08T10:33:19;349.65;;;119.25;;
20830;SDS011;10576;53.556;9.868;2023-08-08T10:36:01;355.13;;;125.00;;
20830;SDS011;10576;53.556;9.868;2023-08-08T10:38:44;347.60;;;116.25;;
20830;SDS011;10576;53.556;9.868;2023-08-08T10:41:17;358.95;;;128.40;;
20830;SDS011;10576;53.556;9.868;2023-08-08T10:43:54;349.88;;;118.70;;
20830;SDS011;10576;53.556;9.868;2023-08-08T10:46:26;354.98;;;126.03;;
20830;SDS011;10576;53.556;9.868;2023-08-08T10:48:57;358.75;;;130.40;;
20830;SDS011;10576;53.556;9.868;2023-08-08T10:51:36;361.23;;;133.40;;
20830;SDS011;10576;53.556;9.868;2023-08-08T10:54:04;356.88;;;128.85;;
20830;SDS011;10576;53.556;9.868;2023-08-08T10:56:39;363.02;;;135.23;;
20830;SDS011;10576;53.556;9.868;2023-08-08T10:59:16;361.50;;;131.77;;
20830;SDS011;10576;53.556;9.868;2023-08-08T11:01:46;357.10;;;128.37;;
20830;SDS011;10576;53.556;9.868;2023-08-08T11:04:14;360.75;;;130.40;;
20830;SDS011;10576;53.556;9.868;2023-08-08T11:06:41;356.02;;;125.82;;
20830;SDS011;10576;53.556;9.868;2023-08-08T11:09:07;359.73;;;128.47;;
20830;SDS011;10576;53.556;9.868;2023-08-08T11:11:37;353.13;;;121.65;;
20830;SDS011;10576;53.556;9.868;2023-08-08T11:14:12;359.23;;;128.95;;
20830;SDS011;10576;53.556;9.868;2023-08-08T11:16:42;351.85;;;120.22;;
20830;SDS011;10576;53.556;9.868;2023-08-08T11:19:10;358.63;;;126.88;;
20830;SDS011;10576;53.556;9.868;2023-08-08T11:21:37;359.63;;;128.13;;
20830;SDS011;10576;53.556;9.868;2023-08-08T11:24:10;354.27;;;122.33;;
20830;SDS011;10576;53.556;9.868;2023-08-08T11:26:38;358.33;;;126.13;;
20830;SDS011;10576;53.556;9.868;2023-08-08T11:29:05;359.73;;;128.48;;
20830;SDS011;10576;53.556;9.868;2023-08-08T11:31:32;357.67;;;126.07;;
20830;SDS011;10576;53.556;9.868;2023-08-08T11:33:59;357.25;;;125.63;;
20830;SDS011;10576;53.556;9.868;2023-08-08T11:36:26;358.73;;;126.73;;
20830;SDS011;10576;53.556;9.868;2023-08-08T11:38:54;358.27;;;127.45;;
20830;SDS011;10576;53.556;9.868;2023-08-08T11:41:22;358.27;;;127.95;;
20830;SDS011;10576;53.556;9.868;2023-08-08T11:43:50;359.60;;;133.03;;
20830;SDS011;10576;53.556;9.868;2023-08-08T11:46:16;364.00;;;137.13;;
20830;SDS011;10576;53.556;9.868;2023-08-08T11:48:43;361.55;;;136.75;;
20830;SDS011;10576;53.556;9.868;2023-08-08T11:51:13;364.38;;;140.48;;
20830;SDS011;10576;53.556;9.868;2023-08-08T11:53:54;353.30;;;127.32;;
20830;SDS011;10576;53.556;9.868;2023-08-08T11:56:20;360.73;;;133.10;;
20830;SDS011;10576;53.556;9.868;2023-08-08T11:58:49;355.02;;;128.73;;
20830;SDS011;10576;53.556;9.868;2023-08-08T12:01:19;359.30;;;131.38;;
20830;SDS011;10576;53.556;9.868;2023-08-08T12:03:49;356.23;;;128.40;;
20830;SDS011;10576;53.556;9.868;2023-08-08T12:06:15;357.23;;;129.63;;
20830;SDS011;10576;53.556;9.868;2023-08-08T12:08:43;358.10;;;130.98;;
20830;SDS011;10576;53.556;9.868;2023-08-08T12:11:13;358.30;;;130.80;;
20830;SDS011;10576;53.556;9.868;2023-08-08T12:13:43;359.13;;;131.80;;
20830;SDS011;10576;53.556;9.868;2023-08-08T12:16:10;350.90;;;123.13;;
20830;SDS011;10576;53.556;9.868;2023-08-08T12:18:37;357.63;;;132.70;;
20830;SDS011;10576;53.556;9.868;2023-08-08T12:21:07;352.48;;;124.63;;
20830;SDS011;10576;53.556;9.868;2023-08-08T12:23:35;353.88;;;129.05;;
20830;SDS011;10576;53.556;9.868;2023-08-08T12:26:05;357.35;;;132.93;;
20830;SDS011;10576;53.556;9.868;2023-08-08T12:28:32;362.42;;;138.25;;
20830;SDS011;10576;53.556;9.868;2023-08-08T12:30:58;358.75;;;136.48;;
20830;SDS011;10576;53.556;9.868;2023-08-08T12:33:24;365.25;;;144.98;;
20830;SDS011;10576;53.556;9.868;2023-08-08T12:35:50;363.05;;;144.93;;
20830;SDS011;10576;53.556;9.868;2023-08-08T12:38:15;367.70;;;153.27;;
20830;SDS011;10576;53.556;9.868;2023-08-08T12:40:41;362.92;;;147.40;;
20830;SDS011;10576;53.556;9.868;2023-08-08T12:43:08;369.53;;;155.17;;
20830;SDS011;10576;53.556;9.868;2023-08-08T12:45:38;368.27;;;156.45;;
20830;SDS011;10576;53.556;9.868;2023-08-08T12:48:05;362.47;;;151.33;;
20830;SDS011;10576;53.556;9.868;2023-08-08T12:50:31;365.40;;;155.43;;
20830;SDS011;10576;53.556;9.868;2023-08-08T12:52:57;364.60;;;155.00;;
20830;SDS011;10576;53.556;9.868;2023-08-08T12:55:22;367.07;;;157.03;;
20830;SDS011;10576;53.556;9.868;2023-08-08T12:57:48;366.63;;;157.23;;
20830;SDS011;10576;53.556;9.868;2023-08-08T13:00:14;364.63;;;154.43;;
20830;SDS011;10576;53.556;9.868;2023-08-08T13:02:41;370.10;;;158.57;;
20830;SDS011;10576;53.556;9.868;2023-08-08T13:05:06;366.05;;;150.65;;
20830;SDS011;10576;53.556;9.868;2023-08-08T13:07:32;361.13;;;141.80;;
20830;SDS011;10576;53.556;9.868;2023-08-08T13:09:58;357.65;;;135.73;;
20830;SDS011;10576;53.556;9.868;2023-08-08T13:12:24;358.15;;;134.88;;
20830;SDS011;10576;53.556;9.868;2023-08-08T13:14:50;356.25;;;130.60;;
20830;SDS011;10576;53.556;9.868;2023-08-08T13:17:15;353.20;;;127.22;;
20830;SDS011;10576;53.556;9.868;2023-08-08T13:19:41;354.67;;;128.55;;
20830;SDS011;10576;53.556;9.868;2023-08-08T13:22:07;359.92;;;135.18;;
20830;SDS011;10576;53.556;9.868;2023-08-08T13:24:32;363.23;;;139.98;;
20830;SDS011;10576;53.556;9.868;2023-08-08T13:26:58;361.45;;;137.30;;
20830;SDS011;10576;53.556;9.868;2023-08-08T13:29:24;362.63;;;139.87;;
20830;SDS011;10576;53.556;9.868;2023-08-08T13:31:49;364.20;;;140.33;;
20830;SDS011;10576;53.556;9.868;2023-08-08T13:34:15;360.93;;;138.97;;
20830;SDS011;10576;53.556;9.868;2023-08-08T13:36:41;357.43;;;134.80;;
20830;SDS011;10576;53.556;9.868;2023-08-08T13:39:07;364.77;;;141.57;;
20830;SDS011;10576;53.556;9.868;2023-08-08T13:41:34;361.15;;;138.52;;
20830;SDS011;10576;53.556;9.868;2023-08-08T13:44:00;360.00;;;136.32;;
20830;SDS011;10576;53.556;9.868;2023-08-08T13:46:26;363.42;;;140.68;;
20830;SDS011;10576;53.556;9.868;2023-08-08T13:48:52;355.52;;;130.95;;
20830;SDS011;10576;53.556;9.868;2023-08-08T13:51:18;361.85;;;136.10;;
20830;SDS011;10576;53.556;9.868;2023-08-08T13:53:44;362.02;;;135.18;;